Impacts TAF Board
For situational awareness. Not to be used for flight planning purposes.
IDs:

KSEA - Seattle-Tacoma Intl, WA, US

Issued at 0520 UTC 18 Jan 2019
Updated at 0920 UTC 18 Jan 2019
Potential Impact None Slight Moderate High
Time<<18/22Z 18/23Z 19/00Z 19/01Z 19/02Z 19/03Z 19/04Z 19/05Z 19/06Z 19/07Z 19/08Z 19/09Z 19/10Z>>
Type PRVL PRVL PRVL PRVL PRVL PRVL PRVL PRVL PRVL PRVL PRVL PRVL PRVL
VIS >6 >6 >6 >6 >6 >6 >6 >6 >6 >6 >6 >6 >6
CIG 50 50 50 50 50 50 50 50 50 50 50 50 50
Cover OVC OVC OVC OVC OVC OVC OVC OVC OVC OVC OVC OVC OVC
FltCat VFR VFR VFR VFR VFR VFR VFR VFR VFR VFR VFR VFR VFR
WX -- -RA -RA -RA -RA -RA -RA -RA -RA -RA -RA -RA -RA
WDir 160 100 100 100 100 100 100 100 100 100 100 100 100
WSpd 9 10 10 10 10 10 10 10 10 10 10 10 10
WGst -- -- -- -- -- -- -- -- -- -- -- -- --
Raw TAF
KSEA 180520Z 1806/1912 18011KT P6SM -RA OVC030
  FM181000 17010KT P6SM -SHRA OVC025
  FM181600 16009KT P6SM OVC050
  FM182300 10010KT P6SM -RA OVC050 WS020/18040KT


METAR Board
Radar Display
Forecast Discussion
For situational awareness. Not to be used for flight planning purposes.